createdAt,value
2022-10-07T00:09:02.973Z,12.14
2022-10-07T00:19:09.339Z,12.16
2022-10-07T00:29:12.287Z,12.26
2022-10-07T00:39:16.583Z,12.14
2022-10-07T00:49:23.519Z,11.57
2022-10-07T00:59:28.266Z,11.77
2022-10-07T01:09:32.076Z,11.65
2022-10-07T01:19:59.266Z,11.58
2022-10-07T01:30:06.418Z,11.28
2022-10-07T01:40:15.223Z,11.47
2022-10-07T01:50:24.580Z,11.22
2022-10-07T02:00:28.089Z,10.89
2022-10-07T02:10:40.840Z,11.09
2022-10-07T02:20:52.845Z,11.08
2022-10-07T02:31:03.920Z,10.83
2022-10-07T02:41:14.751Z,11.08
2022-10-07T02:51:23.855Z,10.76
2022-10-07T03:01:31.866Z,10.86
2022-10-07T03:11:37.391Z,10.82
2022-10-07T03:21:41.563Z,10.85
2022-10-07T03:31:46.977Z,10.59
2022-10-07T03:41:51.631Z,10.60
2022-10-07T03:51:56.849Z,10.51
2022-10-07T04:02:00.247Z,10.55
2022-10-07T04:12:05.014Z,10.39
2022-10-07T04:22:09.223Z,10.22
2022-10-07T04:32:13.983Z,10.20
2022-10-07T04:42:30.809Z,10.19
2022-10-07T04:52:35.427Z,10.21
2022-10-07T05:02:38.878Z,10.10
2022-10-07T05:12:43.339Z,10.04
2022-10-07T05:22:46.435Z,10.19
2022-10-07T05:32:51.181Z,10.19
2022-10-07T05:42:54.464Z,10.21
2022-10-07T05:53:00.859Z,10.14
2022-10-07T06:03:04.231Z,10.17
2022-10-07T06:13:09.881Z,10.25
2022-10-07T06:23:16.209Z,10.20
2022-10-07T06:33:21.180Z,10.70
2022-10-07T06:43:24.991Z,10.99
2022-10-07T06:53:38.624Z,11.17
2022-10-07T07:03:54.545Z,11.52
2022-10-07T07:14:00.967Z,11.94
2022-10-07T07:24:04.462Z,12.36
2022-10-07T07:34:12.462Z,12.60
2022-10-07T07:44:18.617Z,12.96
2022-10-07T07:54:25.552Z,13.49
2022-10-07T08:04:29.620Z,13.73
2022-10-07T08:14:34.680Z,13.68
2022-10-07T08:24:38.147Z,13.81
2022-10-07T08:34:44.792Z,14.15
2022-10-07T08:44:50.585Z,14.89
2022-10-07T08:54:58.876Z,14.64
2022-10-07T09:05:21.358Z,14.84
2022-10-07T09:15:35.462Z,15.10
2022-10-07T09:25:41.252Z,15.30
2022-10-07T09:35:57.437Z,15.66
2022-10-07T09:46:02.202Z,16.05
2022-10-07T09:56:06.911Z,16.53
2022-10-07T10:06:10.491Z,16.83
2022-10-07T10:16:36.276Z,16.76
2022-10-07T10:26:57.473Z,17.01
2022-10-07T10:37:05.838Z,17.37
2022-10-07T10:47:17.261Z,17.58
2022-10-07T10:57:31.781Z,17.94
2022-10-07T11:07:42.151Z,17.82
2022-10-07T11:17:49.447Z,18.13
2022-10-07T11:27:56.779Z,18.08
2022-10-07T11:38:14.519Z,18.48
2022-10-07T11:48:21.206Z,18.84
2022-10-07T11:58:28.449Z,18.84
2022-10-07T12:08:34.866Z,19.02
2022-10-07T12:18:39.117Z,19.22
2022-10-07T12:28:48.598Z,19.38
2022-10-07T12:39:33.065Z,19.78
2022-10-07T12:49:38.492Z,19.53
2022-10-07T12:59:54.135Z,19.47
2022-10-07T13:10:22.045Z,19.83
2022-10-07T13:20:36.692Z,19.66
2022-10-07T13:30:42.067Z,19.69
2022-10-07T13:41:03.161Z,19.83
2022-10-07T13:51:06.882Z,19.86
2022-10-07T14:01:11.509Z,20.07
2022-10-07T14:11:22.198Z,19.91
2022-10-07T14:21:27.404Z,19.82
2022-10-07T14:31:48.437Z,19.77
2022-10-07T14:41:52.532Z,19.62
2022-10-07T14:51:55.487Z,19.58
2022-10-07T15:02:00.770Z,19.49
2022-10-07T15:12:03.806Z,19.43
2022-10-07T15:22:08.087Z,19.31
2022-10-07T15:32:11.030Z,19.22
2022-10-07T15:42:15.432Z,19.20
2022-10-07T15:52:18.571Z,19.00
2022-10-07T16:02:23.254Z,18.98
2022-10-07T16:12:26.062Z,18.90
2022-10-07T16:22:30.186Z,18.82
2022-10-07T16:32:34.285Z,18.71
2022-10-07T16:42:39.779Z,18.58
2022-10-07T16:52:42.675Z,18.40
2022-10-07T17:02:46.970Z,18.22
2022-10-07T17:12:50.760Z,18.08
2022-10-07T17:22:55.074Z,17.93
2022-10-07T17:32:58.093Z,17.80
2022-10-07T17:43:04.487Z,17.70
2022-10-07T17:53:07.903Z,17.46
2022-10-07T18:03:13.181Z,17.44
2022-10-07T18:13:33.952Z,17.15
2022-10-07T18:23:40.377Z,17.15
2022-10-07T18:33:43.731Z,17.09
2022-10-07T18:43:48.186Z,16.83
2022-10-07T18:53:51.404Z,16.82
2022-10-07T19:03:58.045Z,16.95
2022-10-07T19:14:01.703Z,16.68
2022-10-07T19:24:06.559Z,16.65
2022-10-07T19:34:11.850Z,16.73
2022-10-07T19:44:16.503Z,16.60
2022-10-07T19:54:20.096Z,16.56
2022-10-07T20:04:24.467Z,16.18
2022-10-07T20:14:28.229Z,16.28
2022-10-07T20:24:32.511Z,16.12
2022-10-07T20:34:36.095Z,16.02
2022-10-07T20:44:40.455Z,15.90
2022-10-07T20:54:43.717Z,16.01
2022-10-07T21:04:48.594Z,15.89
2022-10-07T21:14:51.483Z,15.88
2022-10-07T21:24:56.406Z,15.74
2022-10-07T21:34:59.372Z,15.37
2022-10-07T21:45:07.197Z,15.46
2022-10-07T21:55:10.531Z,15.21
2022-10-07T22:05:16.479Z,15.22
2022-10-07T22:15:20.230Z,15.18
2022-10-07T22:25:24.843Z,15.15
2022-10-07T22:35:33.689Z,14.96
2022-10-07T22:45:38.030Z,14.75
2022-10-07T22:55:40.975Z,14.73
2022-10-07T23:05:45.346Z,14.52
2022-10-07T23:15:56.102Z,14.42
2022-10-07T23:26:03.041Z,14.16
2022-10-07T23:36:09.106Z,14.28
2022-10-07T23:46:14.455Z,14.42
2022-10-07T23:56:18.720Z,14.25
